createdAt,value
2018-02-14T00:00:27.296Z,4.50
2018-02-14T00:02:55.331Z,4.03
2018-02-14T00:05:23.996Z,4.20
2018-02-14T00:07:51.949Z,4.12
2018-02-14T00:10:20.599Z,4.00
2018-02-14T00:12:48.661Z,3.85
2018-02-14T00:15:16.547Z,4.78
2018-02-14T00:17:44.468Z,5.07
2018-02-14T00:20:12.344Z,4.20
2018-02-14T00:22:40.279Z,4.50
2018-02-14T00:25:08.165Z,4.65
2018-02-14T00:27:36.044Z,5.37
2018-02-14T00:30:04.039Z,4.15
2018-02-14T00:32:31.913Z,5.50
2018-02-14T00:34:59.876Z,4.68
2018-02-14T00:37:27.779Z,4.60
2018-02-14T00:39:55.704Z,4.45
2018-02-14T00:42:23.616Z,4.20
2018-02-14T00:44:51.546Z,4.30
2018-02-14T00:47:19.424Z,4.10
2018-02-14T00:49:47.364Z,4.12
2018-02-14T00:52:15.263Z,5.53
2018-02-14T00:54:43.195Z,3.92
2018-02-14T00:57:11.069Z,4.18
2018-02-14T00:59:39.008Z,4.80
2018-02-14T01:02:06.977Z,5.95
2018-02-14T01:04:34.916Z,5.03
2018-02-14T01:07:02.800Z,4.53
2018-02-14T01:09:30.742Z,5.28
2018-02-14T01:12:00.801Z,4.90
2018-02-14T01:14:28.735Z,5.50
2018-02-14T01:16:56.607Z,4.85
2018-02-14T01:19:24.596Z,5.20
2018-02-14T01:21:52.480Z,6.60
2018-02-14T01:24:20.428Z,5.32
2018-02-14T01:26:48.325Z,5.82
2018-02-14T01:29:16.264Z,5.30
2018-02-14T01:31:44.173Z,5.32
2018-02-14T01:34:12.875Z,5.10
2018-02-14T01:36:40.763Z,6.00
2018-02-14T01:39:08.704Z,5.62
2018-02-14T01:41:37.409Z,5.57
2018-02-14T01:44:05.410Z,6.10
2018-02-14T01:46:33.296Z,5.43
2018-02-14T01:49:01.233Z,5.70
2018-02-14T01:51:29.124Z,5.30
2018-02-14T01:53:57.059Z,5.18
2018-02-14T01:56:24.939Z,5.72
2018-02-14T01:58:52.874Z,5.85
2018-02-14T02:01:21.588Z,5.57
2018-02-14T02:03:53.148Z,6.22
2018-02-14T02:06:21.042Z,5.25
2018-02-14T02:08:48.998Z,5.97
2018-02-14T02:11:16.896Z,5.97
2018-02-14T02:13:44.835Z,5.53
2018-02-14T02:16:12.732Z,4.80
2018-02-14T02:18:40.702Z,5.45
2018-02-14T02:21:08.592Z,5.78
2018-02-14T02:23:36.535Z,5.70
2018-02-14T02:26:04.431Z,5.65
2018-02-14T02:28:32.380Z,5.62
2018-02-14T02:31:00.280Z,4.75
2018-02-14T02:33:29.102Z,5.95
2018-02-14T02:35:56.998Z,6.30
2018-02-14T02:38:24.964Z,6.60
2018-02-14T02:40:52.852Z,6.07
2018-02-14T02:43:20.797Z,4.72
2018-02-14T02:45:48.677Z,5.50
2018-02-14T02:48:16.617Z,6.72
2018-02-14T02:50:44.513Z,5.65
2018-02-14T02:53:12.408Z,6.28
2018-02-14T02:55:41.124Z,5.18
2018-02-14T02:58:09.028Z,5.93
2018-02-14T03:00:36.990Z,6.28
2018-02-14T03:03:04.992Z,6.22
2018-02-14T03:05:32.943Z,6.18
2018-02-14T03:08:00.837Z,6.80
2018-02-14T03:10:29.561Z,7.40
2018-02-14T03:12:57.463Z,6.00
2018-02-14T03:15:25.400Z,5.87
2018-02-14T03:17:53.303Z,6.10
2018-02-14T03:20:21.243Z,6.82
2018-02-14T03:22:49.146Z,7.03
2018-02-14T03:25:17.100Z,7.30
2018-02-14T03:27:44.999Z,6.45
2018-02-14T03:30:12.941Z,7.35
2018-02-14T03:32:40.960Z,5.90
2018-02-14T03:35:09.680Z,7.40
2018-02-14T03:37:37.581Z,6.55
2018-02-14T03:40:05.535Z,7.10
2018-02-14T03:42:33.487Z,8.00
2018-02-14T03:45:01.441Z,7.22
2018-02-14T03:47:29.329Z,6.90
2018-02-14T03:49:58.036Z,5.90
2018-02-14T03:52:25.929Z,6.72
2018-02-14T03:54:53.873Z,6.70
2018-02-14T03:57:21.827Z,6.18
2018-02-14T03:59:49.775Z,7.40
2018-02-14T04:02:18.345Z,6.28
2018-02-14T04:04:46.353Z,6.90
2018-02-14T04:07:14.249Z,5.50
2018-02-14T04:09:42.278Z,5.90
2018-02-14T04:12:10.164Z,6.47
2018-02-14T04:14:38.097Z,6.65
2018-02-14T04:17:05.996Z,7.40
2018-02-14T04:19:33.947Z,6.07
2018-02-14T04:22:01.835Z,6.10
2018-02-14T04:24:29.837Z,7.87
2018-02-14T04:26:57.725Z,6.90
2018-02-14T04:29:25.661Z,7.12
2018-02-14T04:31:53.760Z,7.05
2018-02-14T04:34:21.692Z,6.50
2018-02-14T04:36:49.615Z,7.50
2018-02-14T04:39:18.323Z,7.00
2018-02-14T04:41:46.205Z,7.80
2018-02-14T04:44:14.130Z,7.60
2018-02-14T04:46:42.018Z,6.68
2018-02-14T04:49:09.960Z,6.75
2018-02-14T04:51:37.863Z,6.05
2018-02-14T04:54:05.804Z,6.40
2018-02-14T04:56:33.700Z,7.15
2018-02-14T04:59:01.655Z,7.43
2018-02-14T05:01:30.320Z,6.60
2018-02-14T05:03:58.259Z,7.12
2018-02-14T05:06:26.143Z,7.75
2018-02-14T05:08:54.037Z,6.57
2018-02-14T05:11:21.975Z,7.70
2018-02-14T05:13:49.861Z,6.37
2018-02-14T05:16:19.665Z,7.57
2018-02-14T05:18:47.663Z,7.20
2018-02-14T05:21:15.592Z,6.15
2018-02-14T05:23:44.735Z,8.02
2018-02-14T05:26:12.719Z,7.30
2018-02-14T05:28:41.409Z,7.57
2018-02-14T05:31:09.346Z,7.25
2018-02-14T05:33:37.299Z,7.65
2018-02-14T05:36:05.188Z,7.18
2018-02-14T05:38:33.139Z,7.30
2018-02-14T05:41:01.077Z,8.07
2018-02-14T05:43:28.996Z,8.50
2018-02-14T05:45:56.943Z,8.32
2018-02-14T05:48:24.836Z,8.18
2018-02-14T05:50:52.777Z,8.10
2018-02-14T05:53:26.527Z,8.65
2018-02-14T05:55:55.236Z,8.70
2018-02-14T05:58:23.103Z,7.32
2018-02-14T06:00:54.700Z,7.70
2018-02-14T06:03:26.099Z,7.62
2018-02-14T06:05:58.049Z,8.02
2018-02-14T06:08:28.842Z,9.00
2018-02-14T06:11:00.576Z,6.93
2018-02-14T06:13:31.626Z,8.20
2018-02-14T06:16:03.633Z,8.32
2018-02-14T06:18:36.090Z,7.65
2018-02-14T06:21:10.349Z,7.18
2018-02-14T06:23:42.133Z,7.07
2018-02-14T06:26:15.508Z,6.50
2018-02-14T06:28:47.358Z,7.93
2018-02-14T06:31:15.528Z,7.00
2018-02-14T06:33:43.578Z,7.93
2018-02-14T06:36:15.378Z,7.28
2018-02-14T06:38:46.988Z,8.00
2018-02-14T06:41:19.827Z,8.88
2018-02-14T06:43:52.625Z,8.73
2018-02-14T06:46:33.417Z,8.60
2018-02-14T06:49:05.526Z,10.70
2018-02-14T06:51:37.622Z,9.43
2018-02-14T06:54:11.720Z,9.57
2018-02-14T06:56:43.867Z,12.77
2018-02-14T06:59:16.703Z,10.82
2018-02-14T07:01:50.094Z,11.60
2018-02-14T07:04:22.029Z,12.65
2018-02-14T07:06:50.151Z,12.20
2018-02-14T07:09:18.035Z,11.90
2018-02-14T07:11:48.073Z,12.32
2018-02-14T07:14:15.951Z,13.25
2018-02-14T07:16:43.888Z,11.20
2018-02-14T07:19:11.777Z,11.57
2018-02-14T07:21:39.712Z,12.05
2018-02-14T07:24:07.588Z,11.43
2018-02-14T07:26:35.553Z,11.40
2018-02-14T07:29:03.468Z,11.55
2018-02-14T07:31:31.397Z,11.00
2018-02-14T07:33:59.391Z,11.35
2018-02-14T07:36:27.318Z,10.02
2018-02-14T07:38:55.205Z,12.07
2018-02-14T07:41:23.142Z,11.55
2018-02-14T07:43:51.020Z,10.70
2018-02-14T07:46:18.951Z,9.52
2018-02-14T07:48:46.830Z,9.75
2018-02-14T07:51:14.771Z,10.63
2018-02-14T07:53:42.658Z,11.65
2018-02-14T07:56:11.369Z,11.65
2018-02-14T07:58:39.267Z,14.32
2018-02-14T08:01:07.202Z,17.30
2018-02-14T08:03:41.108Z,15.95
2018-02-14T08:06:09.024Z,14.75
2018-02-14T08:08:36.893Z,13.07
2018-02-14T08:11:04.831Z,11.12
2018-02-14T08:13:32.695Z,11.70
2018-02-14T08:16:00.616Z,12.15
2018-02-14T08:18:28.533Z,13.30
2018-02-14T08:20:56.467Z,15.32
2018-02-14T08:23:25.101Z,13.43
2018-02-14T08:25:53.024Z,13.32
2018-02-14T08:28:20.914Z,12.20
2018-02-14T08:30:48.839Z,13.03
2018-02-14T08:33:16.807Z,30.37
2018-02-14T08:35:44.732Z,47.20
2018-02-14T08:38:12.598Z,78.97
2018-02-14T08:40:40.533Z,24.63
2018-02-14T08:43:08.400Z,12.17
2018-02-14T08:45:36.354Z,13.87
2018-02-14T08:48:04.224Z,8.20
2018-02-14T08:50:32.166Z,16.10
2018-02-14T08:53:00.027Z,34.30
2018-02-14T08:55:27.949Z,63.23
2018-02-14T08:57:55.798Z,18.03
2018-02-14T09:00:23.663Z,17.57
2018-02-14T09:02:51.568Z,11.50
2018-02-14T09:05:20.199Z,52.93
2018-02-14T09:07:48.108Z,18.77
2018-02-14T09:10:17.568Z,39.27
2018-02-14T09:12:45.478Z,25.57
2018-02-14T09:15:13.345Z,15.63
2018-02-14T09:17:41.256Z,27.73
2018-02-14T09:20:09.170Z,18.40
2018-02-14T09:22:37.175Z,21.33
2018-02-14T09:25:05.114Z,11.77
2018-02-14T09:27:33.037Z,12.60
2018-02-14T09:30:00.900Z,15.90
2018-02-14T09:32:29.675Z,10.37
2018-02-14T09:34:58.400Z,9.00
2018-02-14T09:37:26.308Z,9.77
2018-02-14T09:39:54.180Z,10.10
2018-02-14T09:42:22.872Z,11.23
2018-02-14T09:44:51.486Z,9.90
2018-02-14T09:47:19.442Z,11.37
2018-02-14T09:49:47.316Z,11.10
2018-02-14T09:52:15.249Z,10.07
2018-02-14T09:54:43.120Z,10.80
2018-02-14T09:57:11.032Z,10.57
2018-02-14T09:59:38.916Z,10.80
2018-02-14T10:02:06.830Z,10.77
2018-02-14T10:04:34.718Z,10.43
2018-02-14T10:07:03.113Z,10.68
2018-02-14T10:09:31.142Z,9.82
2018-02-14T10:11:59.101Z,10.07
2018-02-14T10:14:27.019Z,9.57
2018-02-14T10:16:54.999Z,10.73
2018-02-14T10:19:22.864Z,10.63
2018-02-14T10:21:50.789Z,10.00
2018-02-14T10:24:18.742Z,10.13
2018-02-14T10:26:46.685Z,11.77
2018-02-14T10:29:14.575Z,9.75
2018-02-14T10:31:42.731Z,9.52
2018-02-14T10:34:10.617Z,9.40
2018-02-14T10:36:38.563Z,9.80
2018-02-14T10:39:06.470Z,10.30
2018-02-14T10:41:36.358Z,8.70
2018-02-14T10:44:04.252Z,9.53
2018-02-14T10:46:32.207Z,10.33
2018-02-14T10:49:00.123Z,9.53
2018-02-14T10:51:32.691Z,11.23
2018-02-14T10:54:01.340Z,9.77
2018-02-14T10:56:29.275Z,10.13
2018-02-14T10:58:57.925Z,10.93
2018-02-14T11:01:31.500Z,9.93
2018-02-14T11:06:55.379Z,8.97
2018-02-14T11:09:23.319Z,9.50
2018-02-14T11:11:51.273Z,10.23
2018-02-14T11:14:19.946Z,10.50
2018-02-14T11:16:51.060Z,10.07
2018-02-14T11:19:19.051Z,9.90
2018-02-14T11:21:47.152Z,9.30
2018-02-14T11:24:15.107Z,9.00
2018-02-14T11:26:43.196Z,8.67
2018-02-14T11:29:11.655Z,9.73
2018-02-14T11:31:42.976Z,8.70
2018-02-14T11:34:11.551Z,8.70
2018-02-14T11:36:39.643Z,8.57
2018-02-14T11:39:07.563Z,8.27
2018-02-14T11:41:35.696Z,8.13
2018-02-14T11:44:04.161Z,8.97
2018-02-14T11:46:32.189Z,10.07
2018-02-14T11:49:00.100Z,8.70
2018-02-14T11:51:28.113Z,9.67
2018-02-14T11:53:56.825Z,8.30
2018-02-14T11:56:24.775Z,8.43
2018-02-14T11:58:52.674Z,9.30
2018-02-14T12:01:20.737Z,7.43
2018-02-14T12:03:48.710Z,8.43
2018-02-14T12:06:16.635Z,8.13
2018-02-14T12:08:44.644Z,8.93
2018-02-14T12:11:12.534Z,8.67
2018-02-14T12:13:40.482Z,7.83
2018-02-14T12:16:08.381Z,7.20
2018-02-14T12:18:36.298Z,8.77
2018-02-14T12:21:04.948Z,7.60
2018-02-14T12:23:37.512Z,7.50
2018-02-14T12:26:05.636Z,7.80
2018-02-14T12:28:33.600Z,7.17
2018-02-14T12:31:02.269Z,8.80
2018-02-14T12:33:30.229Z,8.07
2018-02-14T12:35:58.127Z,6.50
2018-02-14T12:38:26.106Z,7.20
2018-02-14T12:40:54.775Z,6.77
2018-02-14T12:43:22.726Z,7.57
2018-02-14T12:45:50.623Z,7.10
2018-02-14T12:48:19.345Z,6.90
2018-02-14T12:50:47.225Z,6.83
2018-02-14T12:53:19.188Z,7.10
2018-02-14T12:55:47.088Z,6.93
2018-02-14T12:58:15.062Z,6.70
2018-02-14T13:00:42.968Z,5.70
2018-02-14T13:03:10.924Z,5.00
2018-02-14T13:05:38.828Z,5.60
2018-02-14T13:08:06.764Z,5.50
2018-02-14T13:10:35.429Z,5.20
2018-02-14T13:13:03.424Z,5.30
2018-02-14T13:15:32.086Z,5.20
2018-02-14T13:18:00.017Z,4.30
2018-02-14T13:20:27.932Z,4.90
2018-02-14T13:22:56.071Z,5.77
2018-02-14T13:25:23.966Z,4.27
2018-02-14T13:27:51.921Z,5.03
2018-02-14T13:30:19.819Z,5.20
2018-02-14T13:32:48.507Z,4.93
2018-02-14T13:35:16.406Z,5.50
2018-02-14T13:37:44.377Z,3.70
2018-02-14T13:40:12.304Z,5.00
2018-02-14T13:42:40.253Z,4.83
2018-02-14T13:45:08.138Z,3.97
2018-02-14T13:47:36.083Z,5.03
2018-02-14T13:50:04.060Z,4.50
2018-02-14T13:52:32.009Z,6.23
2018-02-14T13:54:59.908Z,4.70
2018-02-14T13:57:27.839Z,5.30
2018-02-14T13:59:55.761Z,6.03
2018-02-14T14:02:23.718Z,5.07
2018-02-14T14:04:51.605Z,5.50
2018-02-14T14:07:19.564Z,5.18
2018-02-14T14:09:51.377Z,5.25
2018-02-14T14:12:19.320Z,5.70
2018-02-14T14:14:47.969Z,5.62
2018-02-14T14:17:15.910Z,4.70
2018-02-14T14:19:43.784Z,5.20
2018-02-14T14:22:12.873Z,6.18
2018-02-14T14:24:40.764Z,5.60
2018-02-14T14:27:08.686Z,5.75
2018-02-14T14:29:36.600Z,8.32
2018-02-14T14:32:08.556Z,31.98
2018-02-14T14:34:36.455Z,12.45
2018-02-14T14:37:04.405Z,6.75
2018-02-14T14:39:32.330Z,6.45
2018-02-14T14:42:00.455Z,5.15
2018-02-14T14:44:28.408Z,5.30
2018-02-14T14:46:56.310Z,6.95
2018-02-14T14:49:24.342Z,4.62
2018-02-14T14:51:52.217Z,5.03
2018-02-14T14:54:20.181Z,5.30
2018-02-14T14:56:48.105Z,5.28
2018-02-14T14:59:19.684Z,20.37
2018-02-14T15:01:47.812Z,6.15
2018-02-14T15:04:16.042Z,5.35
2018-02-14T15:06:45.217Z,5.03
2018-02-14T15:09:13.642Z,5.00
2018-02-14T15:11:41.642Z,4.70
2018-02-14T15:14:09.611Z,4.93
2018-02-14T15:16:37.490Z,4.75
2018-02-14T15:19:06.204Z,5.50
2018-02-14T15:21:34.108Z,5.50
2018-02-14T15:24:02.061Z,4.68
2018-02-14T15:26:29.955Z,6.15
2018-02-14T15:28:57.886Z,4.85
2018-02-14T15:31:25.869Z,5.47
2018-02-14T15:33:57.126Z,4.70
2018-02-14T15:36:25.055Z,5.57
2018-02-14T15:38:52.999Z,5.53
2018-02-14T15:41:20.879Z,5.15
2018-02-14T15:43:49.679Z,5.90
2018-02-14T15:46:18.426Z,5.40
2018-02-14T15:48:46.355Z,5.32
2018-02-14T15:51:14.232Z,5.15
2018-02-14T15:53:42.153Z,5.75
2018-02-14T15:56:10.043Z,6.18
2018-02-14T15:58:38.780Z,6.62
2018-02-14T16:01:06.740Z,5.93
2018-02-14T16:03:42.517Z,7.20
2018-02-14T16:06:10.416Z,5.62
2018-02-14T16:08:38.350Z,5.80
2018-02-14T16:11:06.242Z,5.45
2018-02-14T16:13:34.223Z,5.28
2018-02-14T16:16:02.909Z,6.10
2018-02-14T16:18:31.648Z,5.82
2018-02-14T16:20:59.533Z,5.90
2018-02-14T16:23:27.501Z,6.00
2018-02-14T16:25:55.400Z,6.47
2018-02-14T16:28:23.341Z,6.00
2018-02-14T16:30:51.246Z,6.35
2018-02-14T16:33:20.378Z,6.70
2018-02-14T16:35:48.324Z,6.10
2018-02-14T16:38:16.280Z,7.32
2018-02-14T16:40:44.932Z,6.10
2018-02-14T16:43:12.906Z,6.05
2018-02-14T16:45:40.807Z,6.03
2018-02-14T16:48:09.652Z,6.80
2018-02-14T16:50:37.545Z,6.78
2018-02-14T16:53:05.512Z,6.32
2018-02-14T16:55:33.413Z,5.95
2018-02-14T16:58:01.362Z,6.30
2018-02-14T17:00:31.139Z,6.65
2018-02-14T17:03:12.431Z,7.18
2018-02-14T17:05:54.895Z,7.57
2018-02-14T17:08:28.512Z,7.30
2018-02-14T17:11:02.246Z,7.68
2018-02-14T17:13:30.751Z,6.87
2018-02-14T17:21:30.466Z,7.93
2018-02-14T17:24:03.972Z,7.82
2018-02-14T17:26:43.617Z,7.62
2018-02-14T17:32:06.974Z,7.97
2018-02-14T17:34:39.190Z,9.30
2018-02-14T17:37:08.660Z,9.15
2018-02-14T17:39:37.254Z,8.93
2018-02-14T17:42:14.621Z,13.48
2018-02-14T17:44:43.618Z,16.70
2018-02-14T17:49:56.366Z,13.32
2018-02-14T17:52:33.202Z,13.38
2018-02-14T17:55:05.310Z,11.02
2018-02-14T17:57:33.965Z,11.63
2018-02-14T18:00:07.727Z,11.93
2018-02-14T18:02:43.106Z,11.50
2018-02-14T18:05:16.039Z,9.57
2018-02-14T18:15:09.227Z,10.15
2018-02-14T18:20:34.241Z,10.15
2018-02-14T18:23:13.530Z,9.88
2018-02-14T18:25:49.838Z,9.88
2018-02-14T18:28:28.948Z,9.57
2018-02-14T18:31:05.920Z,8.93
2018-02-14T18:33:40.921Z,7.50
2018-02-14T18:36:13.579Z,8.60
2018-02-14T18:38:44.786Z,8.82
2018-02-14T18:41:13.859Z,9.15
2018-02-14T18:43:42.692Z,8.82
2018-02-14T18:46:12.348Z,9.07
2018-02-14T18:48:42.374Z,8.93
2018-02-14T18:51:21.088Z,9.13
2018-02-14T18:53:50.283Z,10.00
2018-02-14T18:56:28.108Z,9.93
2018-02-14T18:58:56.762Z,9.63
2018-02-14T19:01:26.346Z,10.27
2018-02-14T19:03:56.484Z,10.70
2018-02-14T19:06:24.501Z,10.45
2018-02-14T19:08:52.462Z,11.10
2018-02-14T19:11:20.476Z,12.20
2018-02-14T19:13:48.383Z,9.77
2018-02-14T19:16:16.322Z,9.77
2018-02-14T19:18:44.247Z,8.30
2018-02-14T19:21:12.207Z,11.68
2018-02-14T19:23:40.329Z,10.70
2018-02-14T19:26:08.226Z,9.93
2018-02-14T19:28:36.179Z,9.95
2018-02-14T19:31:04.092Z,9.57
2018-02-14T19:33:32.144Z,10.38
2018-02-14T19:36:00.032Z,11.32
2018-02-14T19:38:27.976Z,9.32
2018-02-14T19:40:55.873Z,10.85
2018-02-14T19:43:23.844Z,8.68
2018-02-14T19:45:51.743Z,10.15
2018-02-14T19:48:19.713Z,11.10
2018-02-14T19:50:47.615Z,10.05
2018-02-14T19:53:16.350Z,10.80
2018-02-14T19:55:44.258Z,10.32
2018-02-14T19:58:12.208Z,10.27
2018-02-14T20:00:40.967Z,11.80
2018-02-14T20:03:09.012Z,11.02
2018-02-14T20:05:36.916Z,11.25
2018-02-14T20:08:04.934Z,10.18
2018-02-14T20:10:32.845Z,10.20
2018-02-14T20:13:00.796Z,10.10
2018-02-14T20:15:28.699Z,10.57
2018-02-14T20:17:56.632Z,10.82
2018-02-14T20:20:24.524Z,9.98
2018-02-14T20:22:52.449Z,9.60
2018-02-14T20:25:20.346Z,12.32
2018-02-14T20:27:48.323Z,12.40
2018-02-14T20:30:16.303Z,10.50
2018-02-14T20:32:44.305Z,9.57
2018-02-14T20:35:13.031Z,11.45
2018-02-14T20:37:40.935Z,9.48
2018-02-14T20:40:08.895Z,10.77
2018-02-14T20:42:36.828Z,10.27
2018-02-14T20:45:04.793Z,10.85
2018-02-14T20:47:32.709Z,11.45
2018-02-14T20:50:00.648Z,10.93
2018-02-14T20:52:28.569Z,9.20
2018-02-14T20:54:57.271Z,10.50
2018-02-14T20:57:25.929Z,21.62
2018-02-14T20:59:53.883Z,11.70
2018-02-14T21:02:23.947Z,11.35
2018-02-14T21:04:52.690Z,11.18
2018-02-14T21:07:20.574Z,10.20
2018-02-14T21:09:48.530Z,11.25
2018-02-14T21:12:17.239Z,11.15
2018-02-14T21:14:45.187Z,10.63
2018-02-14T21:17:13.080Z,11.60
2018-02-14T21:19:41.036Z,11.40
2018-02-14T21:22:08.969Z,11.40
2018-02-14T21:24:36.934Z,11.25
2018-02-14T21:27:04.829Z,11.45
2018-02-14T21:29:32.777Z,12.85
2018-02-14T21:32:00.821Z,12.95
2018-02-14T21:34:28.785Z,12.07
2018-02-14T21:37:00.625Z,12.77
2018-02-14T21:39:28.765Z,13.25
2018-02-14T21:41:56.852Z,11.50
2018-02-14T21:44:24.877Z,13.35
2018-02-14T21:46:52.805Z,12.18
2018-02-14T21:49:25.351Z,12.80
2018-02-14T21:51:53.344Z,13.82
2018-02-14T21:54:25.396Z,11.50
2018-02-14T21:56:53.300Z,11.80
2018-02-14T21:59:21.250Z,13.10
2018-02-14T22:01:49.423Z,12.55
2018-02-14T22:04:17.521Z,14.75
2018-02-14T22:06:45.426Z,13.90
2018-02-14T22:09:13.529Z,13.73
2018-02-14T22:11:41.422Z,12.43
2018-02-14T22:14:09.373Z,13.95
2018-02-14T22:16:37.298Z,13.48
2018-02-14T22:19:05.266Z,12.50
2018-02-14T22:21:33.155Z,12.10
2018-02-14T22:24:01.116Z,13.00
2018-02-14T22:26:30.097Z,13.13
2018-02-14T22:28:58.034Z,13.48
2018-02-14T22:31:25.945Z,11.07
2018-02-14T22:33:53.885Z,12.85
2018-02-14T22:36:21.808Z,12.75
2018-02-14T22:38:49.791Z,14.13
2018-02-14T22:41:17.692Z,13.07
2018-02-14T22:43:46.650Z,11.20
2018-02-14T22:46:14.584Z,13.15
2018-02-14T22:48:42.553Z,13.48
2018-02-14T22:51:10.474Z,11.70
2018-02-14T22:53:38.474Z,12.00
2018-02-14T22:56:06.387Z,12.40
2018-02-14T22:58:37.045Z,12.15
2018-02-14T23:01:06.621Z,12.07
2018-02-14T23:03:34.571Z,12.95
2018-02-14T23:06:02.456Z,12.40
2018-02-14T23:08:30.456Z,12.18
2018-02-14T23:10:58.348Z,10.93
2018-02-14T23:13:26.365Z,11.93
2018-02-14T23:15:54.290Z,11.02
2018-02-14T23:18:22.207Z,13.10
2018-02-14T23:20:50.187Z,10.88
2018-02-14T23:23:18.116Z,11.35
2018-02-14T23:25:46.062Z,11.93
2018-02-14T23:28:13.982Z,11.23
2018-02-14T23:30:48.613Z,11.48
2018-02-14T23:33:16.793Z,12.85
2018-02-14T23:35:44.781Z,11.40
2018-02-14T23:38:12.694Z,12.18
2018-02-14T23:40:40.662Z,13.80
2018-02-14T23:43:08.996Z,11.73
2018-02-14T23:45:36.965Z,12.02
2018-02-14T23:48:04.936Z,11.20
2018-02-14T23:50:32.866Z,11.82
2018-02-14T23:53:00.980Z,10.90
2018-02-14T23:55:28.949Z,13.15
2018-02-14T23:57:56.844Z,12.07
